sensor_id;sensor_type;location;lat;lon;timestamp;P1;durP1;ratioP1;P2;durP2;ratioP2
13708;SDS011;54933;51.908;7.730;2022-07-21T00:01:27;6.00;;;5.40;;
13708;SDS011;54933;51.908;7.730;2022-07-21T00:03:52;5.00;;;4.50;;
13708;SDS011;54933;51.908;7.730;2022-07-21T00:06:18;5.23;;;4.77;;
13708;SDS011;54933;51.908;7.730;2022-07-21T00:08:43;5.30;;;4.80;;
13708;SDS011;54933;51.908;7.730;2022-07-21T00:11:09;7.30;;;4.70;;
13708;SDS011;54933;51.908;7.730;2022-07-21T00:13:34;6.30;;;5.27;;
13708;SDS011;54933;51.908;7.730;2022-07-21T00:15:59;5.03;;;4.53;;
13708;SDS011;54933;51.908;7.730;2022-07-21T00:18:25;6.47;;;5.00;;
13708;SDS011;54933;51.908;7.730;2022-07-21T00:20:53;5.03;;;4.57;;
13708;SDS011;54933;51.908;7.730;2022-07-21T00:23:24;5.80;;;4.63;;
13708;SDS011;54933;51.908;7.730;2022-07-21T00:25:51;5.23;;;4.73;;
13708;SDS011;54933;51.908;7.730;2022-07-21T00:28:17;5.40;;;4.90;;
13708;SDS011;54933;51.908;7.730;2022-07-21T00:30:42;5.53;;;5.03;;
13708;SDS011;54933;51.908;7.730;2022-07-21T00:33:08;5.70;;;5.10;;
13708;SDS011;54933;51.908;7.730;2022-07-21T00:35:33;5.43;;;4.83;;
13708;SDS011;54933;51.908;7.730;2022-07-21T00:37:58;5.93;;;4.90;;
13708;SDS011;54933;51.908;7.730;2022-07-21T00:40:24;5.43;;;4.93;;
13708;SDS011;54933;51.908;7.730;2022-07-21T00:42:49;5.53;;;4.97;;
13708;SDS011;54933;51.908;7.730;2022-07-21T00:45:15;4.77;;;4.33;;
13708;SDS011;54933;51.908;7.730;2022-07-21T00:47:40;4.33;;;4.03;;
13708;SDS011;54933;51.908;7.730;2022-07-21T00:50:08;5.53;;;4.87;;
13708;SDS011;54933;51.908;7.730;2022-07-21T00:52:35;5.57;;;4.60;;
13708;SDS011;54933;51.908;7.730;2022-07-21T00:55:01;5.40;;;4.83;;
13708;SDS011;54933;51.908;7.730;2022-07-21T00:57:27;5.40;;;4.90;;
13708;SDS011;54933;51.908;7.730;2022-07-21T00:59:53;5.03;;;4.57;;
13708;SDS011;54933;51.908;7.730;2022-07-21T01:02:18;4.90;;;4.40;;
13708;SDS011;54933;51.908;7.730;2022-07-21T01:04:44;5.27;;;4.77;;
13708;SDS011;54933;51.908;7.730;2022-07-21T01:07:09;5.77;;;5.17;;
13708;SDS011;54933;51.908;7.730;2022-07-21T01:09:35;5.50;;;4.97;;
13708;SDS011;54933;51.908;7.730;2022-07-21T01:12:00;5.17;;;4.77;;
13708;SDS011;54933;51.908;7.730;2022-07-21T01:14:26;5.13;;;4.60;;
13708;SDS011;54933;51.908;7.730;2022-07-21T01:16:52;5.07;;;4.57;;
13708;SDS011;54933;51.908;7.730;2022-07-21T01:19:18;5.20;;;4.70;;
13708;SDS011;54933;51.908;7.730;2022-07-21T01:21:44;5.73;;;5.10;;
13708;SDS011;54933;51.908;7.730;2022-07-21T01:24:11;5.20;;;4.70;;
13708;SDS011;54933;51.908;7.730;2022-07-21T01:26:44;6.10;;;5.30;;
13708;SDS011;54933;51.908;7.730;2022-07-21T01:29:13;6.90;;;4.87;;
13708;SDS011;54933;51.908;7.730;2022-07-21T01:31:39;6.60;;;4.87;;
13708;SDS011;54933;51.908;7.730;2022-07-21T01:34:06;5.00;;;4.50;;
13708;SDS011;54933;51.908;7.730;2022-07-21T01:36:31;5.77;;;4.90;;
13708;SDS011;54933;51.908;7.730;2022-07-21T01:38:57;5.33;;;4.53;;
13708;SDS011;54933;51.908;7.730;2022-07-21T01:41:41;5.23;;;4.73;;
13708;SDS011;54933;51.908;7.730;2022-07-21T01:44:07;5.77;;;4.77;;
13708;SDS011;54933;51.908;7.730;2022-07-21T01:46:36;4.83;;;4.43;;
13708;SDS011;54933;51.908;7.730;2022-07-21T01:49:04;5.23;;;4.73;;
13708;SDS011;54933;51.908;7.730;2022-07-21T01:51:30;5.70;;;4.60;;
13708;SDS011;54933;51.908;7.730;2022-07-21T01:53:56;5.07;;;4.67;;
13708;SDS011;54933;51.908;7.730;2022-07-21T01:56:22;5.30;;;4.80;;
13708;SDS011;54933;51.908;7.730;2022-07-21T01:58:51;5.10;;;4.60;;
13708;SDS011;54933;51.908;7.730;2022-07-21T02:01:18;4.77;;;4.33;;
13708;SDS011;54933;51.908;7.730;2022-07-21T02:03:45;5.03;;;4.53;;
13708;SDS011;54933;51.908;7.730;2022-07-21T02:06:11;4.60;;;4.20;;
13708;SDS011;54933;51.908;7.730;2022-07-21T02:08:37;6.43;;;4.93;;
13708;SDS011;54933;51.908;7.730;2022-07-21T02:11:02;5.33;;;4.83;;
13708;SDS011;54933;51.908;7.730;2022-07-21T02:13:29;4.93;;;4.17;;
13708;SDS011;54933;51.908;7.730;2022-07-21T02:15:55;4.90;;;4.43;;
13708;SDS011;54933;51.908;7.730;2022-07-21T02:18:20;5.03;;;4.53;;
13708;SDS011;54933;51.908;7.730;2022-07-21T02:20:45;4.63;;;4.23;;
13708;SDS011;54933;51.908;7.730;2022-07-21T02:23:12;4.83;;;4.37;;
13708;SDS011;54933;51.908;7.730;2022-07-21T02:25:38;5.23;;;4.73;;
13708;SDS011;54933;51.908;7.730;2022-07-21T02:28:03;5.67;;;4.77;;
13708;SDS011;54933;51.908;7.730;2022-07-21T02:30:29;4.80;;;4.30;;
13708;SDS011;54933;51.908;7.730;2022-07-21T02:32:54;4.83;;;4.37;;
13708;SDS011;54933;51.908;7.730;2022-07-21T02:35:19;4.43;;;4.03;;
13708;SDS011;54933;51.908;7.730;2022-07-21T02:37:45;5.30;;;4.77;;
13708;SDS011;54933;51.908;7.730;2022-07-21T02:40:10;4.97;;;4.57;;
13708;SDS011;54933;51.908;7.730;2022-07-21T02:42:36;5.00;;;4.60;;
13708;SDS011;54933;51.908;7.730;2022-07-21T02:45:02;5.57;;;4.60;;
13708;SDS011;54933;51.908;7.730;2022-07-21T02:47:31;4.70;;;4.30;;
13708;SDS011;54933;51.908;7.730;2022-07-21T02:49:56;4.40;;;4.00;;
13708;SDS011;54933;51.908;7.730;2022-07-21T02:52:22;4.47;;;4.07;;
13708;SDS011;54933;51.908;7.730;2022-07-21T02:54:47;4.63;;;4.23;;
13708;SDS011;54933;51.908;7.730;2022-07-21T02:57:12;5.20;;;4.50;;
13708;SDS011;54933;51.908;7.730;2022-07-21T02:59:37;4.60;;;4.20;;
13708;SDS011;54933;51.908;7.730;2022-07-21T03:02:03;6.77;;;4.53;;
13708;SDS011;54933;51.908;7.730;2022-07-21T03:04:28;4.60;;;4.17;;
13708;SDS011;54933;51.908;7.730;2022-07-21T03:06:53;4.77;;;4.27;;
13708;SDS011;54933;51.908;7.730;2022-07-21T03:09:19;4.80;;;4.40;;
13708;SDS011;54933;51.908;7.730;2022-07-21T03:11:44;4.93;;;3.93;;
13708;SDS011;54933;51.908;7.730;2022-07-21T03:14:09;5.17;;;4.67;;
13708;SDS011;54933;51.908;7.730;2022-07-21T03:16:34;4.83;;;4.43;;
13708;SDS011;54933;51.908;7.730;2022-07-21T03:19:00;5.23;;;4.73;;
13708;SDS011;54933;51.908;7.730;2022-07-21T03:21:25;5.10;;;4.60;;
13708;SDS011;54933;51.908;7.730;2022-07-21T03:23:50;3.97;;;3.67;;
13708;SDS011;54933;51.908;7.730;2022-07-21T03:26:16;4.97;;;4.53;;
13708;SDS011;54933;51.908;7.730;2022-07-21T03:28:41;4.37;;;3.97;;
13708;SDS011;54933;51.908;7.730;2022-07-21T03:31:08;4.07;;;3.63;;
13708;SDS011;54933;51.908;7.730;2022-07-21T03:33:33;5.37;;;4.40;;
13708;SDS011;54933;51.908;7.730;2022-07-21T03:35:58;4.67;;;4.20;;
13708;SDS011;54933;51.908;7.730;2022-07-21T03:38:24;4.47;;;4.07;;
13708;SDS011;54933;51.908;7.730;2022-07-21T03:40:50;4.70;;;4.30;;
13708;SDS011;54933;51.908;7.730;2022-07-21T03:43:16;3.93;;;3.63;;
13708;SDS011;54933;51.908;7.730;2022-07-21T03:45:42;4.20;;;3.80;;
13708;SDS011;54933;51.908;7.730;2022-07-21T03:48:08;4.40;;;4.00;;
13708;SDS011;54933;51.908;7.730;2022-07-21T03:50:35;4.23;;;3.83;;
13708;SDS011;54933;51.908;7.730;2022-07-21T03:53:02;4.60;;;4.20;;
13708;SDS011;54933;51.908;7.730;2022-07-21T03:55:27;4.67;;;4.27;;
13708;SDS011;54933;51.908;7.730;2022-07-21T03:57:54;4.70;;;4.13;;
13708;SDS011;54933;51.908;7.730;2022-07-21T04:00:22;4.87;;;4.37;;
13708;SDS011;54933;51.908;7.730;2022-07-21T04:02:53;4.90;;;4.20;;
13708;SDS011;54933;51.908;7.730;2022-07-21T04:05:18;4.37;;;3.97;;
13708;SDS011;54933;51.908;7.730;2022-07-21T04:07:45;4.97;;;4.53;;
13708;SDS011;54933;51.908;7.730;2022-07-21T04:10:12;4.40;;;4.00;;
13708;SDS011;54933;51.908;7.730;2022-07-21T04:12:39;4.40;;;4.00;;
13708;SDS011;54933;51.908;7.730;2022-07-21T04:15:05;4.43;;;4.03;;
13708;SDS011;54933;51.908;7.730;2022-07-21T04:17:32;4.00;;;3.70;;
13708;SDS011;54933;51.908;7.730;2022-07-21T04:19:57;4.33;;;3.93;;
13708;SDS011;54933;51.908;7.730;2022-07-21T04:22:23;4.17;;;3.80;;
13708;SDS011;54933;51.908;7.730;2022-07-21T04:24:48;4.60;;;4.20;;
13708;SDS011;54933;51.908;7.730;2022-07-21T04:27:13;5.03;;;4.53;;
13708;SDS011;54933;51.908;7.730;2022-07-21T04:29:39;4.30;;;3.90;;
13708;SDS011;54933;51.908;7.730;2022-07-21T04:32:04;4.00;;;3.60;;
13708;SDS011;54933;51.908;7.730;2022-07-21T04:34:29;4.30;;;3.90;;
13708;SDS011;54933;51.908;7.730;2022-07-21T04:36:55;4.23;;;3.90;;
13708;SDS011;54933;51.908;7.730;2022-07-21T04:39:20;4.23;;;3.83;;
13708;SDS011;54933;51.908;7.730;2022-07-21T04:41:45;4.93;;;4.30;;
13708;SDS011;54933;51.908;7.730;2022-07-21T04:44:11;3.93;;;3.63;;
13708;SDS011;54933;51.908;7.730;2022-07-21T04:46:36;4.37;;;4.00;;
13708;SDS011;54933;51.908;7.730;2022-07-21T04:49:01;4.30;;;3.50;;
13708;SDS011;54933;51.908;7.730;2022-07-21T04:51:27;4.60;;;3.80;;
13708;SDS011;54933;51.908;7.730;2022-07-21T04:53:52;4.30;;;3.90;;
13708;SDS011;54933;51.908;7.730;2022-07-21T04:56:17;4.67;;;4.27;;
13708;SDS011;54933;51.908;7.730;2022-07-21T04:58:42;4.70;;;4.30;;
13708;SDS011;54933;51.908;7.730;2022-07-21T05:01:08;4.20;;;3.80;;
13708;SDS011;54933;51.908;7.730;2022-07-21T05:03:33;4.03;;;3.73;;
13708;SDS011;54933;51.908;7.730;2022-07-21T05:05:58;4.13;;;3.83;;
13708;SDS011;54933;51.908;7.730;2022-07-21T05:08:23;4.00;;;3.70;;
13708;SDS011;54933;51.908;7.730;2022-07-21T05:10:51;4.83;;;4.20;;
13708;SDS011;54933;51.908;7.730;2022-07-21T05:13:16;4.13;;;3.77;;
13708;SDS011;54933;51.908;7.730;2022-07-21T05:15:41;3.90;;;3.60;;
13708;SDS011;54933;51.908;7.730;2022-07-21T05:18:07;3.53;;;3.23;;
13708;SDS011;54933;51.908;7.730;2022-07-21T05:20:32;4.20;;;3.90;;
13708;SDS011;54933;51.908;7.730;2022-07-21T05:22:58;4.33;;;3.93;;
13708;SDS011;54933;51.908;7.730;2022-07-21T05:25:23;4.00;;;3.70;;
13708;SDS011;54933;51.908;7.730;2022-07-21T05:27:48;4.37;;;3.97;;
13708;SDS011;54933;51.908;7.730;2022-07-21T05:30:13;4.20;;;3.90;;
13708;SDS011;54933;51.908;7.730;2022-07-21T05:32:39;5.67;;;4.07;;
13708;SDS011;54933;51.908;7.730;2022-07-21T05:35:04;4.07;;;3.67;;
13708;SDS011;54933;51.908;7.730;2022-07-21T05:37:35;4.10;;;3.80;;
13708;SDS011;54933;51.908;7.730;2022-07-21T05:40:01;3.80;;;3.50;;
13708;SDS011;54933;51.908;7.730;2022-07-21T05:42:26;4.60;;;4.10;;
13708;SDS011;54933;51.908;7.730;2022-07-21T05:44:52;5.30;;;3.70;;
13708;SDS011;54933;51.908;7.730;2022-07-21T05:47:17;3.90;;;3.60;;
13708;SDS011;54933;51.908;7.730;2022-07-21T05:49:42;4.63;;;3.47;;
13708;SDS011;54933;51.908;7.730;2022-07-21T05:52:07;3.93;;;3.53;;
13708;SDS011;54933;51.908;7.730;2022-07-21T05:54:33;4.03;;;3.63;;
13708;SDS011;54933;51.908;7.730;2022-07-21T05:56:58;3.93;;;3.53;;
13708;SDS011;54933;51.908;7.730;2022-07-21T05:59:23;3.93;;;3.63;;
13708;SDS011;54933;51.908;7.730;2022-07-21T06:01:48;4.60;;;4.20;;
13708;SDS011;54933;51.908;7.730;2022-07-21T06:04:14;3.70;;;3.50;;
13708;SDS011;54933;51.908;7.730;2022-07-21T06:06:39;3.97;;;3.67;;
13708;SDS011;54933;51.908;7.730;2022-07-21T06:09:04;4.07;;;3.67;;
13708;SDS011;54933;51.908;7.730;2022-07-21T06:11:30;4.13;;;3.73;;
13708;SDS011;54933;51.908;7.730;2022-07-21T06:13:55;3.97;;;3.60;;
13708;SDS011;54933;51.908;7.730;2022-07-21T06:16:20;3.87;;;3.33;;
13708;SDS011;54933;51.908;7.730;2022-07-21T06:18:45;4.33;;;3.73;;
13708;SDS011;54933;51.908;7.730;2022-07-21T06:21:11;3.97;;;3.67;;
13708;SDS011;54933;51.908;7.730;2022-07-21T06:23:36;3.87;;;3.57;;
13708;SDS011;54933;51.908;7.730;2022-07-21T06:26:01;4.10;;;3.70;;
13708;SDS011;54933;51.908;7.730;2022-07-21T06:28:27;3.60;;;3.30;;
13708;SDS011;54933;51.908;7.730;2022-07-21T06:30:52;4.43;;;3.67;;
13708;SDS011;54933;51.908;7.730;2022-07-21T06:33:18;4.07;;;3.67;;
13708;SDS011;54933;51.908;7.730;2022-07-21T06:35:43;3.83;;;3.20;;
13708;SDS011;54933;51.908;7.730;2022-07-21T06:38:08;3.53;;;3.23;;
13708;SDS011;54933;51.908;7.730;2022-07-21T06:40:34;3.60;;;3.30;;
13708;SDS011;54933;51.908;7.730;2022-07-21T06:43:00;3.60;;;3.30;;
13708;SDS011;54933;51.908;7.730;2022-07-21T06:45:25;3.77;;;3.47;;
13708;SDS011;54933;51.908;7.730;2022-07-21T06:47:58;4.10;;;3.70;;
13708;SDS011;54933;51.908;7.730;2022-07-21T06:50:27;4.03;;;3.67;;
13708;SDS011;54933;51.908;7.730;2022-07-21T06:52:53;3.60;;;3.30;;
13708;SDS011;54933;51.908;7.730;2022-07-21T06:55:18;3.80;;;3.50;;
13708;SDS011;54933;51.908;7.730;2022-07-21T06:57:43;3.80;;;3.50;;
13708;SDS011;54933;51.908;7.730;2022-07-21T07:00:09;4.30;;;3.90;;
13708;SDS011;54933;51.908;7.730;2022-07-21T07:02:35;3.57;;;3.30;;
13708;SDS011;54933;51.908;7.730;2022-07-21T07:05:00;3.93;;;3.60;;
13708;SDS011;54933;51.908;7.730;2022-07-21T07:07:25;3.97;;;3.57;;
13708;SDS011;54933;51.908;7.730;2022-07-21T07:09:51;3.53;;;3.23;;
13708;SDS011;54933;51.908;7.730;2022-07-21T07:12:16;3.60;;;3.30;;
13708;SDS011;54933;51.908;7.730;2022-07-21T07:14:41;3.93;;;3.57;;
13708;SDS011;54933;51.908;7.730;2022-07-21T07:17:07;3.73;;;3.43;;
13708;SDS011;54933;51.908;7.730;2022-07-21T07:19:32;3.47;;;3.10;;
13708;SDS011;54933;51.908;7.730;2022-07-21T07:21:58;3.60;;;3.30;;
13708;SDS011;54933;51.908;7.730;2022-07-21T07:24:23;3.57;;;3.27;;
13708;SDS011;54933;51.908;7.730;2022-07-21T07:26:49;3.80;;;3.50;;
13708;SDS011;54933;51.908;7.730;2022-07-21T07:29:14;3.30;;;3.10;;
13708;SDS011;54933;51.908;7.730;2022-07-21T07:31:39;4.47;;;3.93;;
13708;SDS011;54933;51.908;7.730;2022-07-21T07:34:05;3.87;;;3.57;;
13708;SDS011;54933;51.908;7.730;2022-07-21T07:36:31;4.33;;;3.53;;
13708;SDS011;54933;51.908;7.730;2022-07-21T07:38:58;3.70;;;3.40;;
13708;SDS011;54933;51.908;7.730;2022-07-21T07:41:24;3.80;;;3.47;;
13708;SDS011;54933;51.908;7.730;2022-07-21T07:43:50;3.57;;;3.27;;
13708;SDS011;54933;51.908;7.730;2022-07-21T07:46:16;3.30;;;3.07;;
13708;SDS011;54933;51.908;7.730;2022-07-21T07:48:43;3.63;;;3.33;;
13708;SDS011;54933;51.908;7.730;2022-07-21T07:51:09;3.63;;;3.33;;
13708;SDS011;54933;51.908;7.730;2022-07-21T07:53:35;3.77;;;3.47;;
13708;SDS011;54933;51.908;7.730;2022-07-21T07:56:00;3.80;;;3.50;;
13708;SDS011;54933;51.908;7.730;2022-07-21T07:58:26;3.17;;;2.97;;
13708;SDS011;54933;51.908;7.730;2022-07-21T08:00:52;3.60;;;3.30;;
13708;SDS011;54933;51.908;7.730;2022-07-21T08:03:17;3.53;;;3.33;;
13708;SDS011;54933;51.908;7.730;2022-07-21T08:05:43;4.03;;;3.63;;
13708;SDS011;54933;51.908;7.730;2022-07-21T08:08:08;3.80;;;3.50;;
13708;SDS011;54933;51.908;7.730;2022-07-21T08:10:34;3.60;;;3.30;;
13708;SDS011;54933;51.908;7.730;2022-07-21T08:12:59;3.50;;;3.30;;
13708;SDS011;54933;51.908;7.730;2022-07-21T08:15:25;4.10;;;3.63;;
13708;SDS011;54933;51.908;7.730;2022-07-21T08:17:50;3.50;;;3.20;;
13708;SDS011;54933;51.908;7.730;2022-07-21T08:20:15;3.73;;;3.43;;
13708;SDS011;54933;51.908;7.730;2022-07-21T08:22:41;3.83;;;3.53;;
13708;SDS011;54933;51.908;7.730;2022-07-21T08:25:06;3.53;;;3.23;;
13708;SDS011;54933;51.908;7.730;2022-07-21T08:27:31;3.53;;;3.30;;
13708;SDS011;54933;51.908;7.730;2022-07-21T08:29:57;4.23;;;3.60;;
13708;SDS011;54933;51.908;7.730;2022-07-21T08:32:22;3.60;;;3.30;;
13708;SDS011;54933;51.908;7.730;2022-07-21T08:34:48;3.53;;;3.23;;
13708;SDS011;54933;51.908;7.730;2022-07-21T08:37:13;3.67;;;3.40;;
13708;SDS011;54933;51.908;7.730;2022-07-21T08:39:39;3.17;;;2.90;;
13708;SDS011;54933;51.908;7.730;2022-07-21T08:42:05;3.50;;;3.30;;
13708;SDS011;54933;51.908;7.730;2022-07-21T08:44:32;3.63;;;3.33;;
13708;SDS011;54933;51.908;7.730;2022-07-21T08:46:58;3.43;;;3.23;;
13708;SDS011;54933;51.908;7.730;2022-07-21T08:49:24;3.63;;;3.33;;
13708;SDS011;54933;51.908;7.730;2022-07-21T08:51:50;3.20;;;3.00;;
13708;SDS011;54933;51.908;7.730;2022-07-21T08:54:16;3.27;;;3.07;;
13708;SDS011;54933;51.908;7.730;2022-07-21T08:56:42;4.17;;;3.43;;
13708;SDS011;54933;51.908;7.730;2022-07-21T08:59:08;3.33;;;3.03;;
13708;SDS011;54933;51.908;7.730;2022-07-21T09:01:33;3.50;;;3.20;;
13708;SDS011;54933;51.908;7.730;2022-07-21T09:06:57;3.43;;;3.13;;
13708;SDS011;54933;51.908;7.730;2022-07-21T09:09:28;3.20;;;2.97;;
13708;SDS011;54933;51.908;7.730;2022-07-21T09:11:56;3.57;;;3.27;;
13708;SDS011;54933;51.908;7.730;2022-07-21T09:14:23;4.00;;;3.63;;
13708;SDS011;54933;51.908;7.730;2022-07-21T09:16:52;3.67;;;3.43;;
13708;SDS011;54933;51.908;7.730;2022-07-21T09:21:52;3.43;;;3.23;;
13708;SDS011;54933;51.908;7.730;2022-07-21T09:24:21;3.73;;;3.43;;
13708;SDS011;54933;51.908;7.730;2022-07-21T09:29:41;3.50;;;3.17;;
13708;SDS011;54933;51.908;7.730;2022-07-21T09:32:15;3.20;;;3.00;;
13708;SDS011;54933;51.908;7.730;2022-07-21T09:34:41;3.63;;;3.33;;
13708;SDS011;54933;51.908;7.730;2022-07-21T09:37:06;3.30;;;3.03;;
13708;SDS011;54933;51.908;7.730;2022-07-21T09:42:15;3.23;;;2.93;;
13708;SDS011;54933;51.908;7.730;2022-07-21T09:44:58;3.93;;;3.30;;
13708;SDS011;54933;51.908;7.730;2022-07-21T09:47:30;3.27;;;3.07;;
13708;SDS011;54933;51.908;7.730;2022-07-21T09:49:57;3.70;;;3.40;;
13708;SDS011;54933;51.908;7.730;2022-07-21T09:52:26;3.80;;;3.50;;
13708;SDS011;54933;51.908;7.730;2022-07-21T09:55:03;3.83;;;3.53;;
13708;SDS011;54933;51.908;7.730;2022-07-21T09:57:33;4.10;;;3.70;;
13708;SDS011;54933;51.908;7.730;2022-07-21T09:59:59;3.67;;;3.37;;
13708;SDS011;54933;51.908;7.730;2022-07-21T10:02:26;3.83;;;3.43;;
13708;SDS011;54933;51.908;7.730;2022-07-21T10:04:55;2.97;;;2.77;;
13708;SDS011;54933;51.908;7.730;2022-07-21T10:07:22;3.70;;;3.40;;
13708;SDS011;54933;51.908;7.730;2022-07-21T10:09:48;3.47;;;3.17;;
13708;SDS011;54933;51.908;7.730;2022-07-21T10:12:14;3.67;;;3.37;;
13708;SDS011;54933;51.908;7.730;2022-07-21T10:14:41;3.33;;;3.07;;
13708;SDS011;54933;51.908;7.730;2022-07-21T10:17:07;3.40;;;3.10;;
13708;SDS011;54933;51.908;7.730;2022-07-21T10:19:35;3.30;;;3.10;;
13708;SDS011;54933;51.908;7.730;2022-07-21T10:24:43;3.73;;;3.33;;
13708;SDS011;54933;51.908;7.730;2022-07-21T10:27:09;3.63;;;3.33;;
13708;SDS011;54933;51.908;7.730;2022-07-21T10:29:55;3.50;;;3.20;;
13708;SDS011;54933;51.908;7.730;2022-07-21T10:32:25;3.90;;;3.60;;
13708;SDS011;54933;51.908;7.730;2022-07-21T10:35:03;3.37;;;3.17;;
13708;SDS011;54933;51.908;7.730;2022-07-21T10:37:50;3.80;;;3.50;;
13708;SDS011;54933;51.908;7.730;2022-07-21T10:42:44;4.20;;;3.03;;
13708;SDS011;54933;51.908;7.730;2022-07-21T10:47:55;3.50;;;3.23;;
13708;SDS011;54933;51.908;7.730;2022-07-21T10:50:34;3.07;;;2.73;;
13708;SDS011;54933;51.908;7.730;2022-07-21T10:53:03;3.70;;;3.40;;
13708;SDS011;54933;51.908;7.730;2022-07-21T10:55:34;3.77;;;3.47;;
13708;SDS011;54933;51.908;7.730;2022-07-21T11:00:44;3.03;;;2.83;;
13708;SDS011;54933;51.908;7.730;2022-07-21T11:08:36;3.67;;;3.33;;
13708;SDS011;54933;51.908;7.730;2022-07-21T11:11:31;3.07;;;2.83;;
13708;SDS011;54933;51.908;7.730;2022-07-21T11:14:01;3.23;;;3.03;;
13708;SDS011;54933;51.908;7.730;2022-07-21T11:24:38;3.47;;;3.20;;
13708;SDS011;54933;51.908;7.730;2022-07-21T11:29:35;5.10;;;3.30;;
13708;SDS011;54933;51.908;7.730;2022-07-21T11:32:03;3.27;;;3.07;;
13708;SDS011;54933;51.908;7.730;2022-07-21T11:34:39;4.00;;;3.17;;
13708;SDS011;54933;51.908;7.730;2022-07-21T11:37:26;3.20;;;3.00;;
13708;SDS011;54933;51.908;7.730;2022-07-21T11:40:21;3.47;;;3.20;;
13708;SDS011;54933;51.908;7.730;2022-07-21T11:42:47;3.33;;;3.13;;
13708;SDS011;54933;51.908;7.730;2022-07-21T11:45:16;3.57;;;3.27;;
13708;SDS011;54933;51.908;7.730;2022-07-21T11:47:42;3.03;;;2.83;;
13708;SDS011;54933;51.908;7.730;2022-07-21T11:50:09;3.20;;;3.00;;
13708;SDS011;54933;51.908;7.730;2022-07-21T11:52:36;3.07;;;2.83;;
13708;SDS011;54933;51.908;7.730;2022-07-21T11:55:04;3.13;;;2.93;;
13708;SDS011;54933;51.908;7.730;2022-07-21T11:57:31;3.63;;;3.33;;
13708;SDS011;54933;51.908;7.730;2022-07-21T11:59:58;3.20;;;3.00;;
13708;SDS011;54933;51.908;7.730;2022-07-21T12:02:25;3.27;;;3.07;;
13708;SDS011;54933;51.908;7.730;2022-07-21T12:04:55;3.10;;;2.90;;
13708;SDS011;54933;51.908;7.730;2022-07-21T12:07:22;3.07;;;2.87;;
13708;SDS011;54933;51.908;7.730;2022-07-21T12:09:52;3.43;;;3.13;;
13708;SDS011;54933;51.908;7.730;2022-07-21T12:17:43;3.57;;;3.33;;
13708;SDS011;54933;51.908;7.730;2022-07-21T12:20:30;3.40;;;3.20;;
13708;SDS011;54933;51.908;7.730;2022-07-21T12:23:00;3.10;;;2.90;;
13708;SDS011;54933;51.908;7.730;2022-07-21T12:25:44;3.20;;;3.00;;
13708;SDS011;54933;51.908;7.730;2022-07-21T12:28:10;3.20;;;2.90;;
13708;SDS011;54933;51.908;7.730;2022-07-21T12:30:36;3.13;;;2.83;;
13708;SDS011;54933;51.908;7.730;2022-07-21T12:35:37;2.73;;;2.60;;
13708;SDS011;54933;51.908;7.730;2022-07-21T12:38:11;3.10;;;2.90;;
13708;SDS011;54933;51.908;7.730;2022-07-21T12:40:39;3.10;;;2.90;;
13708;SDS011;54933;51.908;7.730;2022-07-21T12:46:00;3.17;;;2.87;;
13708;SDS011;54933;51.908;7.730;2022-07-21T12:53:28;3.07;;;2.87;;
13708;SDS011;54933;51.908;7.730;2022-07-21T12:55:55;3.10;;;2.90;;
13708;SDS011;54933;51.908;7.730;2022-07-21T12:58:20;3.67;;;3.17;;
13708;SDS011;54933;51.908;7.730;2022-07-21T13:00:46;2.70;;;2.60;;
13708;SDS011;54933;51.908;7.730;2022-07-21T13:03:11;2.83;;;2.63;;
13708;SDS011;54933;51.908;7.730;2022-07-21T13:05:37;3.40;;;3.10;;
13708;SDS011;54933;51.908;7.730;2022-07-21T13:08:02;3.30;;;3.10;;
13708;SDS011;54933;51.908;7.730;2022-07-21T13:10:28;3.40;;;3.20;;
13708;SDS011;54933;51.908;7.730;2022-07-21T13:12:54;3.53;;;3.23;;
13708;SDS011;54933;51.908;7.730;2022-07-21T13:15:19;3.20;;;2.80;;
13708;SDS011;54933;51.908;7.730;2022-07-21T13:17:44;3.20;;;3.00;;
13708;SDS011;54933;51.908;7.730;2022-07-21T13:20:10;3.67;;;3.30;;
13708;SDS011;54933;51.908;7.730;2022-07-21T13:22:36;2.83;;;2.63;;
13708;SDS011;54933;51.908;7.730;2022-07-21T13:25:02;3.17;;;2.97;;
13708;SDS011;54933;51.908;7.730;2022-07-21T13:27:28;3.47;;;3.17;;
13708;SDS011;54933;51.908;7.730;2022-07-21T13:29:54;3.00;;;2.80;;
13708;SDS011;54933;51.908;7.730;2022-07-21T13:32:19;3.50;;;3.30;;
13708;SDS011;54933;51.908;7.730;2022-07-21T13:34:44;3.33;;;3.03;;
13708;SDS011;54933;51.908;7.730;2022-07-21T13:37:10;3.03;;;2.83;;
13708;SDS011;54933;51.908;7.730;2022-07-21T13:39:37;3.17;;;2.97;;
13708;SDS011;54933;51.908;7.730;2022-07-21T13:42:03;3.67;;;3.37;;
13708;SDS011;54933;51.908;7.730;2022-07-21T13:44:29;3.00;;;2.80;;
13708;SDS011;54933;51.908;7.730;2022-07-21T13:46:54;3.57;;;3.27;;
13708;SDS011;54933;51.908;7.730;2022-07-21T13:49:20;3.60;;;3.40;;
13708;SDS011;54933;51.908;7.730;2022-07-21T13:51:45;3.20;;;3.00;;
13708;SDS011;54933;51.908;7.730;2022-07-21T13:54:11;3.27;;;3.07;;
13708;SDS011;54933;51.908;7.730;2022-07-21T13:56:36;3.00;;;2.80;;
13708;SDS011;54933;51.908;7.730;2022-07-21T13:59:02;3.03;;;2.83;;
13708;SDS011;54933;51.908;7.730;2022-07-21T14:01:27;3.13;;;2.93;;
13708;SDS011;54933;51.908;7.730;2022-07-21T14:03:53;3.17;;;2.97;;
13708;SDS011;54933;51.908;7.730;2022-07-21T14:06:19;3.70;;;3.40;;
13708;SDS011;54933;51.908;7.730;2022-07-21T14:08:44;3.00;;;2.80;;
13708;SDS011;54933;51.908;7.730;2022-07-21T14:11:09;3.10;;;2.90;;
13708;SDS011;54933;51.908;7.730;2022-07-21T14:13:36;3.47;;;3.20;;
13708;SDS011;54933;51.908;7.730;2022-07-21T14:16:01;3.50;;;3.20;;
13708;SDS011;54933;51.908;7.730;2022-07-21T14:18:27;3.10;;;2.90;;
13708;SDS011;54933;51.908;7.730;2022-07-21T14:20:52;3.00;;;2.90;;
13708;SDS011;54933;51.908;7.730;2022-07-21T14:23:21;3.30;;;3.10;;
13708;SDS011;54933;51.908;7.730;2022-07-21T14:25:47;3.47;;;3.27;;
13708;SDS011;54933;51.908;7.730;2022-07-21T14:28:16;3.37;;;3.10;;
13708;SDS011;54933;51.908;7.730;2022-07-21T14:30:42;3.70;;;3.40;;
13708;SDS011;54933;51.908;7.730;2022-07-21T14:33:07;3.23;;;3.00;;
13708;SDS011;54933;51.908;7.730;2022-07-21T14:35:33;2.77;;;2.63;;
13708;SDS011;54933;51.908;7.730;2022-07-21T14:37:58;2.80;;;2.60;;
13708;SDS011;54933;51.908;7.730;2022-07-21T14:40:23;3.57;;;3.33;;
13708;SDS011;54933;51.908;7.730;2022-07-21T14:42:49;3.60;;;3.30;;
13708;SDS011;54933;51.908;7.730;2022-07-21T14:45:17;3.10;;;2.90;;
13708;SDS011;54933;51.908;7.730;2022-07-21T14:47:43;3.87;;;3.57;;
13708;SDS011;54933;51.908;7.730;2022-07-21T14:50:09;3.50;;;3.20;;
13708;SDS011;54933;51.908;7.730;2022-07-21T14:52:34;2.83;;;2.73;;
13708;SDS011;54933;51.908;7.730;2022-07-21T14:54:59;3.33;;;3.00;;
13708;SDS011;54933;51.908;7.730;2022-07-21T14:57:24;3.40;;;3.20;;
13708;SDS011;54933;51.908;7.730;2022-07-21T14:59:50;3.47;;;3.17;;
13708;SDS011;54933;51.908;7.730;2022-07-21T15:02:15;3.13;;;2.77;;
13708;SDS011;54933;51.908;7.730;2022-07-21T15:04:41;3.50;;;3.20;;
13708;SDS011;54933;51.908;7.730;2022-07-21T15:07:06;3.20;;;3.00;;
13708;SDS011;54933;51.908;7.730;2022-07-21T15:09:32;3.20;;;3.00;;
13708;SDS011;54933;51.908;7.730;2022-07-21T15:11:57;3.30;;;3.10;;
13708;SDS011;54933;51.908;7.730;2022-07-21T15:14:22;3.40;;;3.20;;
13708;SDS011;54933;51.908;7.730;2022-07-21T15:16:48;3.03;;;2.83;;
13708;SDS011;54933;51.908;7.730;2022-07-21T15:19:13;3.20;;;3.00;;
13708;SDS011;54933;51.908;7.730;2022-07-21T15:21:38;3.30;;;2.93;;
13708;SDS011;54933;51.908;7.730;2022-07-21T15:24:05;3.27;;;3.00;;
13708;SDS011;54933;51.908;7.730;2022-07-21T15:26:31;3.07;;;2.80;;
13708;SDS011;54933;51.908;7.730;2022-07-21T15:28:56;3.47;;;3.23;;
13708;SDS011;54933;51.908;7.730;2022-07-21T15:31:23;3.30;;;3.10;;
13708;SDS011;54933;51.908;7.730;2022-07-21T15:33:48;2.93;;;2.67;;
13708;SDS011;54933;51.908;7.730;2022-07-21T15:36:13;2.97;;;2.77;;
13708;SDS011;54933;51.908;7.730;2022-07-21T15:38:39;3.10;;;2.90;;